Aviation Digital Data Service (ADDS)

Output produced by METARs form (1239 UTC 14 February 2016)
found at http://www.aviationweather.gov/adds/metars/
 
KLGA 141124Z 1412/1512 32020G30KT P6SM FEW050 
     FM141600 33015G23KT P6SM SKC 
     FM141800 32012KT P6SM SKC 
     FM142300 30007KT P6SM SKC 
     FM150400 VRB03KT P6SM FEW250